Unbenanntes Dokument
Flugplatz Bielefeld Platzwetter

 

Aktuelles Platzwetter am Flugplatz Bielefeld EDLI

22.05.19 ,14:43 Uhr

METAR EDLI 221443Z 29006KT 9999 ///050 16/06 Q1018

 

Windwerte

 

Wolkenuntergrenzen

Wind aktuell:250 ° mit 4 kt
Wind 10 min Extrem:
220 ° bis 350 ° mit 2 kt bis 9 kt
Seitenwindkomponente: 1.6 kt
Wolkengrenze 1: 5500 ft
Wolkengrenze 2:
Wolkengrenze 3:

Webcam

Temperatur

       

Sichtweite:

20.000 Meter

16.2 °C
Taupunkt: 6.6 °C
Luftfeuchtigkeit: 52 %

Luftdruck:

QNH: 1018 hPa (30.06 in Hg)
QFE: 1002 hPa (29.59 in Hg)

Diese Daten werden automatisch ermittelt bzw. übertragen und sind nicht geprüft. Für die Richtigkeit wird daher keine Gewähr übernommen. Sie ersetzen im übrigen nicht die Flugwetterberatung. Alle Zeitangaben beziehen sich auf UTC. Die Seite wird einmal die Minute aktualisiert! Sollten Sie ein ältere Seite haben, so drücken Sie bitte auf den Reload Button Ihres Browsers!